sensor_id;sensor_type;location;lat;lon;timestamp;pressure;altitude;pressure_sealevel;temperature;humidity
70521;BME280;58442;52.716;23.560;2023-04-07T00:01:49;101253.30;;;8.94;77.54
70521;BME280;58442;52.716;23.560;2023-04-07T00:03:51;101254.56;;;8.96;77.57
70521;BME280;58442;52.716;23.560;2023-04-07T00:05:52;101246.10;;;8.98;77.54
70521;BME280;58442;52.716;23.560;2023-04-07T00:07:54;101253.12;;;8.99;77.52
70521;BME280;58442;52.716;23.560;2023-04-07T00:10:05;101254.73;;;9.00;77.53
70521;BME280;58442;52.716;23.560;2023-04-07T00:12:06;101239.26;;;9.00;77.60
70521;BME280;58442;52.716;23.560;2023-04-07T00:14:08;101247.05;;;9.02;77.61
70521;BME280;58442;52.716;23.560;2023-04-07T00:16:09;101238.27;;;9.05;77.56
70521;BME280;58442;52.716;23.560;2023-04-07T00:18:19;101239.23;;;9.09;77.53
70521;BME280;58442;52.716;23.560;2023-04-07T00:20:21;101240.80;;;9.10;77.56
70521;BME280;58442;52.716;23.560;2023-04-07T00:22:22;101243.98;;;9.12;77.49
70521;BME280;58442;52.716;23.560;2023-04-07T00:24:24;101240.18;;;9.13;77.49
70521;BME280;58442;52.716;23.560;2023-04-07T00:26:34;101237.46;;;9.13;77.47
70521;BME280;58442;52.716;23.560;2023-04-07T00:28:35;101240.64;;;9.15;77.45
70521;BME280;58442;52.716;23.560;2023-04-07T00:30:37;101239.97;;;9.18;77.47
70521;BME280;58442;52.716;23.560;2023-04-07T00:32:39;101235.04;;;9.20;77.42
70521;BME280;58442;52.716;23.560;2023-04-07T00:34:49;101240.13;;;9.22;77.37
70521;BME280;58442;52.716;23.560;2023-04-07T00:36:50;101233.25;;;9.24;77.39
70521;BME280;58442;52.716;23.560;2023-04-07T00:38:52;101236.45;;;9.26;77.34
70521;BME280;58442;52.716;23.560;2023-04-07T00:40:57;101237.25;;;9.27;77.29
70521;BME280;58442;52.716;23.560;2023-04-07T00:43:04;101225.60;;;9.26;77.31
70521;BME280;58442;52.716;23.560;2023-04-07T00:45:06;101232.62;;;9.27;77.36
70521;BME280;58442;52.716;23.560;2023-04-07T00:47:08;101227.19;;;9.27;77.37
70521;BME280;58442;52.716;23.560;2023-04-07T00:49:10;101225.60;;;9.26;77.31
70521;BME280;58442;52.716;23.560;2023-04-07T00:51:21;101228.62;;;9.25;77.38
70521;BME280;58442;52.716;23.560;2023-04-07T00:53:23;101227.83;;;9.24;77.44
70521;BME280;58442;52.716;23.560;2023-04-07T00:55:24;101228.62;;;9.25;77.43
70521;BME280;58442;52.716;23.560;2023-04-07T00:57:26;101234.38;;;9.23;77.38
70521;BME280;58442;52.716;23.560;2023-04-07T00:59:34;101226.23;;;9.23;77.45
70521;BME280;58442;52.716;23.560;2023-04-07T01:03:59;101223.53;;;9.23;77.42
70521;BME280;58442;52.716;23.560;2023-04-07T01:06:05;101226.23;;;9.23;77.40
70521;BME280;58442;52.716;23.560;2023-04-07T01:12:51;101220.82;;;9.23;77.38
70521;BME280;58442;52.716;23.560;2023-04-07T01:15:05;101218.10;;;9.23;77.45
70521;BME280;58442;52.716;23.560;2023-04-07T01:17:09;101221.61;;;9.24;77.49
70521;BME280;58442;52.716;23.560;2023-04-07T01:21:32;101222.27;;;9.21;77.56
70521;BME280;58442;52.716;23.560;2023-04-07T01:28:13;101219.41;;;9.17;77.67
70521;BME280;58442;52.716;23.560;2023-04-07T01:30:22;101216.23;;;9.15;77.79
70521;BME280;58442;52.716;23.560;2023-04-07T01:32:25;101225.48;;;9.14;77.85
70521;BME280;58442;52.716;23.560;2023-04-07T01:34:29;101219.57;;;9.12;77.90
70521;BME280;58442;52.716;23.560;2023-04-07T01:36:32;101212.57;;;9.11;77.89
70521;BME280;58442;52.716;23.560;2023-04-07T01:38:37;101216.41;;;9.10;77.87
70521;BME280;58442;52.716;23.560;2023-04-07T01:40:40;101213.23;;;9.08;77.99
70521;BME280;58442;52.716;23.560;2023-04-07T01:42:42;101217.37;;;9.05;77.99
70521;BME280;58442;52.716;23.560;2023-04-07T01:44:47;101212.28;;;9.04;78.09
70521;BME280;58442;52.716;23.560;2023-04-07T01:46:53;101216.90;;;9.03;78.16
70521;BME280;58442;52.716;23.560;2023-04-07T01:48:56;101213.56;;;9.07;78.16
70521;BME280;58442;52.716;23.560;2023-04-07T01:50:58;101214.82;;;9.09;78.17
70521;BME280;58442;52.716;23.560;2023-04-07T01:53:02;101217.99;;;9.11;78.11
70521;BME280;58442;52.716;23.560;2023-04-07T01:55:07;101214.48;;;9.11;78.14
70521;BME280;58442;52.716;23.560;2023-04-07T01:57:09;101216.41;;;9.10;78.16
70521;BME280;58442;52.716;23.560;2023-04-07T01:59:11;101214.02;;;9.09;78.16
70521;BME280;58442;52.716;23.560;2023-04-07T02:01:13;101213.69;;;9.10;78.13
70521;BME280;58442;52.716;23.560;2023-04-07T02:03:30;101216.41;;;9.10;78.10
70521;BME280;58442;52.716;23.560;2023-04-07T02:05:42;101213.23;;;9.08;78.16
70521;BME280;58442;52.716;23.560;2023-04-07T02:07:55;101215.16;;;9.08;78.24
70521;BME280;58442;52.716;23.560;2023-04-07T02:10:02;101213.87;;;9.05;78.30
70521;BME280;58442;52.716;23.560;2023-04-07T02:12:05;101216.27;;;9.07;78.33
70521;BME280;58442;52.716;23.560;2023-04-07T02:14:08;101218.49;;;9.04;78.35
70521;BME280;58442;52.716;23.560;2023-04-07T02:16:11;101213.07;;;9.04;78.42
70521;BME280;58442;52.716;23.560;2023-04-07T02:18:14;101220.08;;;9.05;78.38
70521;BME280;58442;52.716;23.560;2023-04-07T02:20:17;101214.20;;;9.03;78.43
70521;BME280;58442;52.716;23.560;2023-04-07T02:22:20;101217.70;;;9.04;78.45
70521;BME280;58442;52.716;23.560;2023-04-07T02:24:21;101224.71;;;9.05;78.47
70521;BME280;58442;52.716;23.560;2023-04-07T02:26:23;101223.13;;;9.04;78.48
70521;BME280;58442;52.716;23.560;2023-04-07T02:28:24;101226.96;;;9.03;78.48
70521;BME280;58442;52.716;23.560;2023-04-07T02:30:33;101217.23;;;9.02;78.58
70521;BME280;58442;52.716;23.560;2023-04-07T02:32:36;101223.00;;;9.00;78.59
70521;BME280;58442;52.716;23.560;2023-04-07T02:34:37;101227.62;;;9.00;78.63
70521;BME280;58442;52.716;23.560;2023-04-07T02:36:38;101218.36;;;9.01;78.60
70521;BME280;58442;52.716;23.560;2023-04-07T02:38:48;101222.66;;;9.02;78.58
70521;BME280;58442;52.716;23.560;2023-04-07T02:40:49;101225.70;;;9.00;78.59
70521;BME280;58442;52.716;23.560;2023-04-07T02:42:50;101222.66;;;9.02;78.63
70521;BME280;58442;52.716;23.560;2023-04-07T02:44:52;101216.77;;;9.00;78.63
70521;BME280;58442;52.716;23.560;2023-04-07T02:47:02;101222.20;;;9.00;78.69
70521;BME280;58442;52.716;23.560;2023-04-07T02:49:04;101223.29;;;8.99;78.55
70521;BME280;58442;52.716;23.560;2023-04-07T02:51:05;101222.20;;;9.00;78.66
70521;BME280;58442;52.716;23.560;2023-04-07T02:53:06;101224.91;;;9.00;78.68
70521;BME280;58442;52.716;23.560;2023-04-07T02:55:17;101223.00;;;9.00;78.65
70521;BME280;58442;52.716;23.560;2023-04-07T02:57:19;101220.58;;;8.99;78.65
70521;BME280;58442;52.716;23.560;2023-04-07T02:59:20;101220.58;;;8.99;78.67
70521;BME280;58442;52.716;23.560;2023-04-07T03:01:22;101219.49;;;9.00;78.61
70521;BME280;58442;52.716;23.560;2023-04-07T03:03:32;101222.20;;;9.00;78.60
70521;BME280;58442;52.716;23.560;2023-04-07T03:05:34;101221.40;;;8.99;78.67
70521;BME280;58442;52.716;23.560;2023-04-07T03:07:35;101221.40;;;8.99;78.62
70521;BME280;58442;52.716;23.560;2023-04-07T03:09:36;101224.12;;;8.99;78.63
70521;BME280;58442;52.716;23.560;2023-04-07T03:11:47;101229.54;;;8.99;78.62
70521;BME280;58442;52.716;23.560;2023-04-07T03:13:48;101222.82;;;8.97;78.67
70521;BME280;58442;52.716;23.560;2023-04-07T03:15:50;101228.25;;;8.97;78.72
70521;BME280;58442;52.716;23.560;2023-04-07T03:17:51;101227.13;;;8.98;78.71
70521;BME280;58442;52.716;23.560;2023-04-07T03:20:02;101227.13;;;8.98;78.72
70521;BME280;58442;52.716;23.560;2023-04-07T03:22:04;101237.67;;;8.99;78.69
70521;BME280;58442;52.716;23.560;2023-04-07T03:24:06;101238.46;;;9.00;78.67
70521;BME280;58442;52.716;23.560;2023-04-07T03:26:08;101233.83;;;9.00;78.64
70521;BME280;58442;52.716;23.560;2023-04-07T03:28:17;101240.84;;;9.01;78.64
70521;BME280;58442;52.716;23.560;2023-04-07T03:30:18;101239.72;;;9.02;78.62
70521;BME280;58442;52.716;23.560;2023-04-07T03:32:20;101241.98;;;9.00;78.54
70521;BME280;58442;52.716;23.560;2023-04-07T03:34:22;101239.55;;;8.99;78.59
70521;BME280;58442;52.716;23.560;2023-04-07T03:36:32;101236.05;;;8.98;78.59
70521;BME280;58442;52.716;23.560;2023-04-07T03:38:34;101237.52;;;8.96;78.60
70521;BME280;58442;52.716;23.560;2023-04-07T03:40:36;101241.34;;;8.95;78.65
70521;BME280;58442;52.716;23.560;2023-04-07T03:42:37;101237.37;;;8.92;78.68
70521;BME280;58442;52.716;23.560;2023-04-07T03:44:47;101241.18;;;8.91;78.70
70521;BME280;58442;52.716;23.560;2023-04-07T03:46:48;101241.84;;;8.88;78.78
70521;BME280;58442;52.716;23.560;2023-04-07T03:48:50;101242.63;;;8.89;78.81
70521;BME280;58442;52.716;23.560;2023-04-07T03:50:52;101247.26;;;8.88;78.79
70521;BME280;58442;52.716;23.560;2023-04-07T03:53:01;101247.26;;;8.88;78.82
70521;BME280;58442;52.716;23.560;2023-04-07T03:55:04;101243.43;;;8.89;78.84
70521;BME280;58442;52.716;23.560;2023-04-07T03:57:06;101248.51;;;8.91;78.77
70521;BME280;58442;52.716;23.560;2023-04-07T03:59:07;101246.60;;;8.91;78.72
70521;BME280;58442;52.716;23.560;2023-04-07T04:01:16;101250.93;;;8.92;78.69
70521;BME280;58442;52.716;23.560;2023-04-07T04:03:18;101244.69;;;8.92;78.66
70521;BME280;58442;52.716;23.560;2023-04-07T04:05:19;101249.01;;;8.93;78.67
70521;BME280;58442;52.716;23.560;2023-04-07T04:07:21;101250.59;;;8.94;78.62
70521;BME280;58442;52.716;23.560;2023-04-07T04:09:31;101246.77;;;8.95;78.58
70521;BME280;58442;52.716;23.560;2023-04-07T04:11:33;101245.18;;;8.94;78.60
70521;BME280;58442;52.716;23.560;2023-04-07T04:13:34;101250.59;;;8.94;78.65
70521;BME280;58442;52.716;23.560;2023-04-07T04:15:36;101251.38;;;8.94;78.65
70521;BME280;58442;52.716;23.560;2023-04-07T04:17:46;101255.36;;;8.97;78.65
70521;BME280;58442;52.716;23.560;2023-04-07T04:19:48;101254.23;;;8.98;78.64
70521;BME280;58442;52.716;23.560;2023-04-07T04:21:50;101252.65;;;8.97;78.57
70521;BME280;58442;52.716;23.560;2023-04-07T04:23:52;101271.00;;;9.00;78.60
70521;BME280;58442;52.716;23.560;2023-04-07T04:26:01;101251.23;;;8.99;78.59
70521;BME280;58442;52.716;23.560;2023-04-07T04:28:04;101261.74;;;9.01;78.57
70521;BME280;58442;52.716;23.560;2023-04-07T04:30:07;101263.33;;;9.02;78.56
70521;BME280;58442;52.716;23.560;2023-04-07T04:32:08;101263.33;;;9.02;78.55
70521;BME280;58442;52.716;23.560;2023-04-07T04:34:16;101259.82;;;9.01;78.58
70521;BME280;58442;52.716;23.560;2023-04-07T04:36:17;101264.91;;;9.03;78.59
70521;BME280;58442;52.716;23.560;2023-04-07T04:38:19;101265.38;;;9.05;78.55
70521;BME280;58442;52.716;23.560;2023-04-07T04:40:20;101265.08;;;9.07;78.53
70521;BME280;58442;52.716;23.560;2023-04-07T04:42:31;101267.12;;;9.10;78.55
70521;BME280;58442;52.716;23.560;2023-04-07T04:44:33;101269.21;;;9.13;78.51
70521;BME280;58442;52.716;23.560;2023-04-07T04:46:35;101263.13;;;9.16;78.78
70521;BME280;58442;52.716;23.560;2023-04-07T04:48:36;101266.79;;;9.20;78.41
70521;BME280;58442;52.716;23.560;2023-04-07T04:50:46;101272.34;;;9.23;78.37
70521;BME280;58442;52.716;23.560;2023-04-07T04:52:47;101267.54;;;9.29;78.34
70521;BME280;58442;52.716;23.560;2023-04-07T04:54:49;101273.09;;;9.32;78.25
70521;BME280;58442;52.716;23.560;2023-04-07T04:56:50;101272.47;;;9.36;78.22
70521;BME280;58442;52.716;23.560;2023-04-07T04:59:02;101267.17;;;9.39;78.21
70521;BME280;58442;52.716;23.560;2023-04-07T05:01:06;101268.13;;;9.43;78.18
70521;BME280;58442;52.716;23.560;2023-04-07T05:03:08;101272.88;;;9.46;78.14
70521;BME280;58442;52.716;23.560;2023-04-07T05:05:10;101277.33;;;9.51;78.14
70521;BME280;58442;52.716;23.560;2023-04-07T05:07:15;101270.94;;;9.55;78.08
70521;BME280;58442;52.716;23.560;2023-04-07T05:09:17;101276.98;;;9.61;78.04
70521;BME280;58442;52.716;23.560;2023-04-07T05:11:18;101279.20;;;9.68;77.97
70521;BME280;58442;52.716;23.560;2023-04-07T05:13:21;101286.33;;;9.72;77.87
70521;BME280;58442;52.716;23.560;2023-04-07T05:15:30;101283.43;;;9.77;77.80
70521;BME280;58442;52.716;23.560;2023-04-07T05:17:32;101288.99;;;9.81;77.76
70521;BME280;58442;52.716;23.560;2023-04-07T05:19:33;101287.22;;;9.85;77.70
70521;BME280;58442;52.716;23.560;2023-04-07T05:21:35;101286.88;;;9.86;77.67
70521;BME280;58442;52.716;23.560;2023-04-07T05:23:45;101286.24;;;9.90;77.64
70521;BME280;58442;52.716;23.560;2023-04-07T05:25:47;101285.91;;;9.91;77.62
70521;BME280;58442;52.716;23.560;2023-04-07T05:27:49;101287.95;;;9.94;77.61
70521;BME280;58442;52.716;23.560;2023-04-07T05:29:51;101290.36;;;9.96;77.58
70521;BME280;58442;52.716;23.560;2023-04-07T05:32:00;101291.27;;;10.00;77.51
70521;BME280;58442;52.716;23.560;2023-04-07T05:34:02;101291.43;;;10.03;77.46
70521;BME280;58442;52.716;23.560;2023-04-07T05:36:03;101295.39;;;10.06;77.40
70521;BME280;58442;52.716;23.560;2023-04-07T05:38:05;101300.18;;;10.09;77.34
70521;BME280;58442;52.716;23.560;2023-04-07T05:40:15;101294.07;;;10.12;77.32
70521;BME280;58442;52.716;23.560;2023-04-07T05:42:16;101298.84;;;10.15;77.28
70521;BME280;58442;52.716;23.560;2023-04-07T05:44:18;101303.63;;;10.18;77.24
70521;BME280;58442;52.716;23.560;2023-04-07T05:46:19;101293.67;;;10.22;77.19
70521;BME280;58442;52.716;23.560;2023-04-07T05:48:30;101297.02;;;10.28;77.10
70521;BME280;58442;52.716;23.560;2023-04-07T05:50:31;101294.12;;;10.33;77.00
70521;BME280;58442;52.716;23.560;2023-04-07T05:52:33;101296.64;;;10.38;76.89
70521;BME280;58442;52.716;23.560;2023-04-07T05:54:34;101297.23;;;10.44;76.85
70521;BME280;58442;52.716;23.560;2023-04-07T05:56:45;101296.22;;;10.48;76.82
70521;BME280;58442;52.716;23.560;2023-04-07T05:58:46;101290.25;;;10.55;76.77
70521;BME280;58442;52.716;23.560;2023-04-07T06:00:47;101290.50;;;10.62;76.68
70521;BME280;58442;52.716;23.560;2023-04-07T06:02:50;101296.68;;;10.71;76.58
70521;BME280;58442;52.716;23.560;2023-04-07T06:05:00;101302.48;;;10.82;76.47
70521;BME280;58442;52.716;23.560;2023-04-07T06:07:01;101298.09;;;10.89;76.36
70521;BME280;58442;52.716;23.560;2023-04-07T06:09:03;101298.80;;;10.99;76.22
70521;BME280;58442;52.716;23.560;2023-04-07T06:11:04;101299.05;;;11.06;76.09
70521;BME280;58442;52.716;23.560;2023-04-07T06:13:15;101302.02;;;11.13;75.95
70521;BME280;58442;52.716;23.560;2023-04-07T06:15:16;101300.32;;;11.20;75.79
70521;BME280;58442;52.716;23.560;2023-04-07T06:17:18;101299.77;;;11.27;75.65
70521;BME280;58442;52.716;23.560;2023-04-07T06:19:19;101299.88;;;11.31;75.54
70521;BME280;58442;52.716;23.560;2023-04-07T06:21:29;101289.23;;;11.38;75.46
70521;BME280;58442;52.716;23.560;2023-04-07T06:23:31;101301.83;;;11.42;75.32
70521;BME280;58442;52.716;23.560;2023-04-07T06:25:33;101295.69;;;11.45;75.17
70521;BME280;58442;52.716;23.560;2023-04-07T06:27:34;101301.27;;;11.49;75.05
70521;BME280;58442;52.716;23.560;2023-04-07T06:29:44;101292.88;;;11.54;74.98
70521;BME280;58442;52.716;23.560;2023-04-07T06:31:46;101294.56;;;11.59;74.85
70521;BME280;58442;52.716;23.560;2023-04-07T06:33:47;101297.07;;;11.64;74.74
70521;BME280;58442;52.716;23.560;2023-04-07T06:35:48;101294.91;;;11.69;74.64
70521;BME280;58442;52.716;23.560;2023-04-07T06:37:59;101300.93;;;11.75;74.56
70521;BME280;58442;52.716;23.560;2023-04-07T06:40:02;101302.33;;;11.81;74.46
70521;BME280;58442;52.716;23.560;2023-04-07T06:42:03;101303.22;;;11.85;74.34
70521;BME280;58442;52.716;23.560;2023-04-07T06:44:05;101311.51;;;11.89;74.26
70521;BME280;58442;52.716;23.560;2023-04-07T06:46:14;101309.01;;;11.96;74.15
70521;BME280;58442;52.716;23.560;2023-04-07T06:48:15;101317.74;;;12.01;74.07
70521;BME280;58442;52.716;23.560;2023-04-07T06:50:17;101315.90;;;12.05;73.99
70521;BME280;58442;52.716;23.560;2023-04-07T06:52:21;101321.22;;;12.14;73.83
70521;BME280;58442;52.716;23.560;2023-04-07T06:54:29;101306.57;;;12.19;73.67
70521;BME280;58442;52.716;23.560;2023-04-07T06:56:31;101309.86;;;12.24;73.54
70521;BME280;58442;52.716;23.560;2023-04-07T06:58:33;101305.31;;;12.28;73.40
70521;BME280;58442;52.716;23.560;2023-04-07T07:00:35;101315.17;;;12.33;73.31
70521;BME280;58442;52.716;23.560;2023-04-07T07:02:44;101314.15;;;12.38;73.24
70521;BME280;58442;52.716;23.560;2023-04-07T07:04:45;101312.65;;;12.40;73.18
70521;BME280;58442;52.716;23.560;2023-04-07T07:06:47;101310.13;;;12.47;73.02
70521;BME280;58442;52.716;23.560;2023-04-07T07:08:49;101306.82;;;12.54;72.90
70521;BME280;58442;52.716;23.560;2023-04-07T07:10:58;101307.80;;;12.62;72.70
70521;BME280;58442;52.716;23.560;2023-04-07T07:13:00;101304.95;;;12.70;72.56
70521;BME280;58442;52.716;23.560;2023-04-07T07:15:02;101307.95;;;12.81;72.42
70521;BME280;58442;52.716;23.560;2023-04-07T07:17:04;101314.05;;;12.90;72.29
70521;BME280;58442;52.716;23.560;2023-04-07T07:19:13;101314.70;;;12.99;72.10
70521;BME280;58442;52.716;23.560;2023-04-07T07:21:17;101305.12;;;13.05;71.88
70521;BME280;58442;52.716;23.560;2023-04-07T07:23:18;101317.01;;;13.13;71.71
70521;BME280;58442;52.716;23.560;2023-04-07T07:25:20;101311.77;;;13.20;71.57
70521;BME280;58442;52.716;23.560;2023-04-07T07:27:28;101312.73;;;13.28;71.45
70521;BME280;58442;52.716;23.560;2023-04-07T07:29:30;101321.20;;;13.38;71.25
70521;BME280;58442;52.716;23.560;2023-04-07T07:31:32;101329.23;;;13.47;71.03
70521;BME280;58442;52.716;23.560;2023-04-07T07:33:33;101325.08;;;13.53;70.89
70521;BME280;58442;52.716;23.560;2023-04-07T07:35:43;101327.52;;;13.58;70.77
70521;BME280;58442;52.716;23.560;2023-04-07T07:37:44;101333.88;;;13.62;70.75
70521;BME280;58442;52.716;23.560;2023-04-07T07:39:46;101347.97;;;13.64;70.73
70521;BME280;58442;52.716;23.560;2023-04-07T07:41:47;101341.72;;;13.64;70.63
70521;BME280;58442;52.716;23.560;2023-04-07T07:43:58;101340.23;;;13.66;70.56
70521;BME280;58442;52.716;23.560;2023-04-07T07:45:59;101343.75;;;13.67;70.42
70521;BME280;58442;52.716;23.560;2023-04-07T07:48:01;101348.44;;;13.66;70.38
70521;BME280;58442;52.716;23.560;2023-04-07T07:50:03;101352.28;;;13.65;70.31
70521;BME280;58442;52.716;23.560;2023-04-07T07:52:12;101356.52;;;13.63;70.27
70521;BME280;58442;52.716;23.560;2023-04-07T07:54:14;101359.25;;;13.63;70.12
70521;BME280;58442;52.716;23.560;2023-04-07T07:56:15;101358.47;;;13.62;70.10
70521;BME280;58442;52.716;23.560;2023-04-07T07:58:17;101361.20;;;13.62;70.06
70521;BME280;58442;52.716;23.560;2023-04-07T08:00:27;101357.14;;;13.56;70.04
70521;BME280;58442;52.716;23.560;2023-04-07T08:02:29;101364.91;;;13.54;69.94
70521;BME280;58442;52.716;23.560;2023-04-07T08:04:35;101365.16;;;13.49;69.94
70521;BME280;58442;52.716;23.560;2023-04-07T08:06:36;101368.13;;;13.44;69.97
70521;BME280;58442;52.716;23.560;2023-04-07T08:08:42;101363.40;;;13.41;70.00
70521;BME280;58442;52.716;23.560;2023-04-07T08:10:43;101364.80;;;13.35;69.98
70521;BME280;58442;52.716;23.560;2023-04-07T08:12:45;101374.73;;;13.27;70.08
70521;BME280;58442;52.716;23.560;2023-04-07T08:14:46;101384.75;;;13.23;70.25
70521;BME280;58442;52.716;23.560;2023-04-07T08:16:57;101377.92;;;13.17;70.32
70521;BME280;58442;52.716;23.560;2023-04-07T08:18:58;101390.70;;;13.13;70.52
70521;BME280;58442;52.716;23.560;2023-04-07T08:21:00;101388.65;;;13.10;70.61
70521;BME280;58442;52.716;23.560;2023-04-07T08:23:01;101395.61;;;13.07;70.80
70521;BME280;58442;52.716;23.560;2023-04-07T08:25:12;101392.67;;;13.00;70.95
70521;BME280;58442;52.716;23.560;2023-04-07T08:27:13;101391.70;;;12.93;71.14
70521;BME280;58442;52.716;23.560;2023-04-07T08:29:15;101399.44;;;12.91;71.22
70521;BME280;58442;52.716;23.560;2023-04-07T08:31:16;101396.00;;;12.94;71.19
70521;BME280;58442;52.716;23.560;2023-04-07T08:33:26;101397.23;;;12.96;71.16
70521;BME280;58442;52.716;23.560;2023-04-07T08:35:28;101393.39;;;12.97;71.19
70521;BME280;58442;52.716;23.560;2023-04-07T08:37:30;101400.16;;;13.03;71.19
70521;BME280;58442;52.716;23.560;2023-04-07T08:39:32;101406.52;;;13.07;71.19
70521;BME280;58442;52.716;23.560;2023-04-07T08:41:41;101403.45;;;13.09;71.32
70521;BME280;58442;52.716;23.560;2023-04-07T08:43:46;101404.78;;;13.15;71.31
70521;BME280;58442;52.716;23.560;2023-04-07T08:45:49;101413.88;;;13.19;71.26
70521;BME280;58442;52.716;23.560;2023-04-07T08:47:54;101408.17;;;13.24;71.25
70521;BME280;58442;52.716;23.560;2023-04-07T08:50:04;101400.88;;;13.28;71.20
70521;BME280;58442;52.716;23.560;2023-04-07T08:52:08;101402.41;;;13.41;71.09
70521;BME280;58442;52.716;23.560;2023-04-07T08:54:15;101396.34;;;13.48;71.09
70521;BME280;58442;52.716;23.560;2023-04-07T08:56:19;101397.67;;;13.54;71.00
70521;BME280;58442;52.716;23.560;2023-04-07T08:58:23;101402.42;;;13.57;70.87
70521;BME280;58442;52.716;23.560;2023-04-07T09:00:26;101394.69;;;13.59;70.75
70521;BME280;58442;52.716;23.560;2023-04-07T09:02:28;101399.70;;;13.57;70.78
70521;BME280;58442;52.716;23.560;2023-04-07T09:04:31;101406.22;;;13.53;70.89
70521;BME280;58442;52.716;23.560;2023-04-07T09:06:34;101406.12;;;13.49;70.95
70521;BME280;58442;52.716;23.560;2023-04-07T09:08:36;101410.34;;;13.47;71.01
70521;BME280;58442;52.716;23.560;2023-04-07T09:10:37;101404.00;;;13.43;71.07
70521;BME280;58442;52.716;23.560;2023-04-07T09:12:39;101405.93;;;13.42;70.99
70521;BME280;58442;52.716;23.560;2023-04-07T09:14:47;101411.31;;;13.38;70.94
70521;BME280;58442;52.716;23.560;2023-04-07T09:16:48;101413.49;;;13.33;71.00
70521;BME280;58442;52.716;23.560;2023-04-07T09:18:51;101408.72;;;13.30;70.99
70521;BME280;58442;52.716;23.560;2023-04-07T09:21:00;101411.37;;;13.26;71.06
70521;BME280;58442;52.716;23.560;2023-04-07T09:23:02;101409.78;;;13.25;71.14
70521;BME280;58442;52.716;23.560;2023-04-07T09:25:10;101403.18;;;13.26;71.21
70521;BME280;58442;52.716;23.560;2023-04-07T09:27:17;101407.14;;;13.29;71.12
70521;BME280;58442;52.716;23.560;2023-04-07T09:29:19;101412.59;;;13.29;71.14
70521;BME280;58442;52.716;23.560;2023-04-07T09:31:22;101412.59;;;13.29;71.20
70521;BME280;58442;52.716;23.560;2023-04-07T09:33:27;101411.45;;;13.30;71.15
70521;BME280;58442;52.716;23.560;2023-04-07T09:35:28;101407.06;;;13.25;71.17
70521;BME280;58442;52.716;23.560;2023-04-07T09:37:30;101417.40;;;13.20;71.32
70521;BME280;58442;52.716;23.560;2023-04-07T09:39:32;101415.35;;;13.17;71.46
70521;BME280;58442;52.716;23.560;2023-04-07T09:41:34;101419.69;;;13.18;71.57
70521;BME280;58442;52.716;23.560;2023-04-07T09:43:41;101428.30;;;13.20;71.58
70521;BME280;58442;52.716;23.560;2023-04-07T09:45:45;101419.34;;;13.19;71.59
70521;BME280;58442;52.716;23.560;2023-04-07T09:47:47;101428.78;;;13.22;71.60
70521;BME280;58442;52.716;23.560;2023-04-07T09:49:53;101436.73;;;13.27;71.55
70521;BME280;58442;52.716;23.560;2023-04-07T09:51:59;101431.02;;;13.32;71.47
70521;BME280;58442;52.716;23.560;2023-04-07T09:54:07;101441.15;;;13.31;71.53
70521;BME280;58442;52.716;23.560;2023-04-07T09:56:10;101436.02;;;13.30;71.52
70521;BME280;58442;52.716;23.560;2023-04-07T09:58:12;101435.34;;;13.33;71.53
70521;BME280;58442;52.716;23.560;2023-04-07T10:00:17;101443.18;;;13.34;71.49
70521;BME280;58442;52.716;23.560;2023-04-07T10:02:18;101435.42;;;13.36;71.45
70521;BME280;58442;52.716;23.560;2023-04-07T10:04:21;101440.64;;;13.41;71.31
70521;BME280;58442;52.716;23.560;2023-04-07T10:06:23;101441.19;;;13.47;71.22
70521;BME280;58442;52.716;23.560;2023-04-07T10:08:28;101442.77;;;13.48;71.10
70521;BME280;58442;52.716;23.560;2023-04-07T10:10:32;101443.99;;;13.51;71.07
70521;BME280;58442;52.716;23.560;2023-04-07T10:12:37;101449.91;;;13.53;70.96
70521;BME280;58442;52.716;23.560;2023-04-07T10:14:38;101447.19;;;13.53;70.96
70521;BME280;58442;52.716;23.560;2023-04-07T10:16:41;101455.63;;;13.48;70.98
70521;BME280;58442;52.716;23.560;2023-04-07T10:18:42;101457.80;;;13.42;71.03
70521;BME280;58442;52.716;23.560;2023-04-07T10:20:51;101466.61;;;13.35;71.04
70521;BME280;58442;52.716;23.560;2023-04-07T10:22:59;101464.46;;;13.29;71.12
70521;BME280;58442;52.716;23.560;2023-04-07T10:25:09;101465.05;;;13.22;71.28
70521;BME280;58442;52.716;23.560;2023-04-07T10:27:16;101459.02;;;13.17;71.34
70521;BME280;58442;52.716;23.560;2023-04-07T10:29:20;101476.10;;;13.13;71.39
70521;BME280;58442;52.716;23.560;2023-04-07T10:31:30;101475.20;;;13.09;71.48
70521;BME280;58442;52.716;23.560;2023-04-07T10:42:54;101481.43;;;13.10;72.00
70521;BME280;58442;52.716;23.560;2023-04-07T10:44:45;101485.09;;;13.14;71.92
70521;BME280;58442;52.716;23.560;2023-04-07T10:47:03;101491.77;;;13.17;71.91
70521;BME280;58442;52.716;23.560;2023-04-07T10:49:15;101474.72;;;13.20;71.77
70521;BME280;58442;52.716;23.560;2023-04-07T10:51:17;101481.79;;;13.21;71.68
70521;BME280;58442;52.716;23.560;2023-04-07T10:53:18;101484.16;;;13.22;71.63
70521;BME280;58442;52.716;23.560;2023-04-07T10:57:33;101488.60;;;13.27;71.42
70521;BME280;58442;52.716;23.560;2023-04-07T10:59:36;101490.02;;;13.36;71.18
70521;BME280;58442;52.716;23.560;2023-04-07T11:01:38;101489.43;;;13.43;71.03
70521;BME280;58442;52.716;23.560;2023-04-07T11:03:41;101484.16;;;13.50;71.02
70521;BME280;58442;52.716;23.560;2023-04-07T11:05:45;101485.15;;;13.58;70.86
70521;BME280;58442;52.716;23.560;2023-04-07T11:07:48;101489.69;;;13.66;70.67
70521;BME280;58442;52.716;23.560;2023-04-07T11:12:03;101497.65;;;13.87;70.19